GLD1794 SUSO-SBCR
Flight info
| Callsign | GLD1794 |
|---|---|
| Flight time | 1h 59m |
| Altitude | 37000 |
| Route | KORTA UN785 GEMSU UP526 VAS UM402 SIDAK |
| Aircraft | A319/M-SDE3FGHIRWY/LB1 |
Departure
| Time | 2026-05-01 13:23 |
|---|---|
| Airport | Nueva Hesperides International Airport (SUSO) |
Arrival
| Time | 2026-05-01 15:22 |
|---|---|
| Airport | Corumbá International Airport (SBCR) |
| Time | Latitude | Longitude | Altitude | Speed | Heading |
|---|---|---|---|---|---|
| 2026-05-01 12:56 | -31.43711 | -57.98088 | 135 ft | 0 kts | 263° |
| 2026-05-01 13:17 | -31.43733 | -57.98125 | 134 ft | 6 kts | 236° |
| 2026-05-01 13:17 | -31.43739 | -57.98182 | 134 ft | 8 kts | 274° |
| 2026-05-01 13:18 | -31.43731 | -57.98259 | 134 ft | 2 kts | 277° |
| 2026-05-01 13:18 | -31.43730 | -57.98265 | 134 ft | 0 kts | 276° |
| 2026-05-01 13:18 | -31.43730 | -57.98266 | 134 ft | 1 kts | 276° |
| 2026-05-01 13:19 | -31.43712 | -57.98360 | 133 ft | 26 kts | 282° |
| 2026-05-01 13:19 | -31.43789 | -57.98473 | 133 ft | 14 kts | 220° |
| 2026-05-01 13:19 | -31.43953 | -57.98628 | 130 ft | 17 kts | 219° |
| 2026-05-01 13:20 | -31.44049 | -57.98715 | 127 ft | 18 kts | 219° |
| 2026-05-01 13:20 | -31.44152 | -57.98814 | 125 ft | 20 kts | 217° |
| 2026-05-01 13:20 | -31.44253 | -57.98908 | 123 ft | 17 kts | 218° |
| 2026-05-01 13:21 | -31.44389 | -57.99036 | 122 ft | 2 kts | 137° |
| 2026-05-01 13:21 | -31.44387 | -57.99031 | 119 ft | 0 kts | 85° |
| 2026-05-01 13:21 | -31.44379 | -57.99022 | 120 ft | 2 kts | 34° |
| 2026-05-01 13:21 | -31.44369 | -57.99014 | 120 ft | 0 kts | 34° |
| 2026-05-01 13:22 | -31.44367 | -57.99012 | 120 ft | 7 kts | 34° |
| 2026-05-01 13:22 | -31.44093 | -57.98757 | 124 ft | 91 kts | 38° |
| 2026-05-01 13:22 | -31.43418 | -57.98136 | 244 ft | 140 kts | 38° |
| 2026-05-01 13:22 | -31.42618 | -57.97404 | 735 ft | 148 kts | 39° |
| 2026-05-01 13:23 | -31.41835 | -57.96664 | 1422 ft | 146 kts | 34° |
| 2026-05-01 13:23 | -31.41025 | -57.95981 | 2005 ft | 148 kts | 17° |
| 2026-05-01 13:23 | -31.39906 | -57.95738 | 2235 ft | 176 kts | 4° |
| 2026-05-01 13:23 | -31.38614 | -57.95469 | 2524 ft | 202 kts | 7° |
| 2026-05-01 13:24 | -31.37154 | -57.95122 | 2894 ft | 226 kts | 8° |
| 2026-05-01 13:24 | -31.35530 | -57.94727 | 3353 ft | 248 kts | 8° |
| 2026-05-01 13:24 | -31.33829 | -57.94309 | 4086 ft | 256 kts | 8° |
| 2026-05-01 13:25 | -31.30268 | -57.93432 | 5793 ft | 265 kts | 8° |
| 2026-05-01 13:25 | -31.28452 | -57.92986 | 6655 ft | 269 kts | 7° |
| 2026-05-01 13:25 | -31.26616 | -57.92537 | 7511 ft | 270 kts | 6° |
| 2026-05-01 13:25 | -31.24764 | -57.92085 | 8340 ft | 273 kts | 6° |
| 2026-05-01 13:26 | -31.22893 | -57.91629 | 9196 ft | 276 kts | 6° |
| 2026-05-01 13:26 | -31.21004 | -57.91173 | 10048 ft | 278 kts | 6° |
| 2026-05-01 13:26 | -31.19052 | -57.90709 | 10446 ft | 297 kts | 6° |
| 2026-05-01 13:26 | -31.16969 | -57.90220 | 10695 ft | 318 kts | 6° |
| 2026-05-01 13:27 | -31.14765 | -57.89694 | 11244 ft | 327 kts | 6° |
| 2026-05-01 13:27 | -31.12513 | -57.89148 | 11866 ft | 332 kts | 7° |
| 2026-05-01 13:27 | -31.07944 | -57.88027 | 13151 ft | 342 kts | 7° |
| 2026-05-01 13:28 | -31.03218 | -57.86889 | 14335 ft | 350 kts | 6° |
| 2026-05-01 13:28 | -31.00819 | -57.86312 | 14906 ft | 353 kts | 6° |
| 2026-05-01 13:29 | -30.95972 | -57.85137 | 16063 ft | 358 kts | 6° |
| 2026-05-01 13:29 | -30.91044 | -57.83946 | 17216 ft | 364 kts | 6° |
| 2026-05-01 13:30 | -30.80966 | -57.81518 | 19434 ft | 375 kts | 5° |
| 2026-05-01 13:31 | -30.75814 | -57.80291 | 20498 ft | 379 kts | 5° |
| 2026-05-01 13:31 | -30.68008 | -57.78285 | 22078 ft | 390 kts | 10° |
| 2026-05-01 13:32 | -30.62821 | -57.76456 | 23079 ft | 394 kts | 10° |
| 2026-05-01 13:33 | -30.54860 | -57.73664 | 24322 ft | 402 kts | 10° |
| 2026-05-01 13:33 | -30.49462 | -57.71780 | 25092 ft | 406 kts | 9° |
| 2026-05-01 13:34 | -30.44016 | -57.69889 | 25846 ft | 410 kts | 9° |
| 2026-05-01 13:34 | -30.38511 | -57.67972 | 26559 ft | 415 kts | 9° |
| 2026-05-01 13:35 | -30.32984 | -57.66048 | 27235 ft | 419 kts | 9° |
| 2026-05-01 13:35 | -30.30183 | -57.65076 | 27594 ft | 421 kts | 9° |
| 2026-05-01 13:35 | -30.24500 | -57.63781 | 28328 ft | 411 kts | 355° |
| 2026-05-01 13:36 | -30.21632 | -57.63717 | 28677 ft | 412 kts | 354° |
| 2026-05-01 13:36 | -30.18750 | -57.63655 | 29020 ft | 414 kts | 354° |
| 2026-05-01 13:36 | -30.12998 | -57.63531 | 29681 ft | 417 kts | 354° |
| 2026-05-01 13:37 | -30.10081 | -57.63468 | 29951 ft | 419 kts | 354° |
| 2026-05-01 13:37 | -30.07152 | -57.63401 | 30206 ft | 422 kts | 354° |
| 2026-05-01 13:37 | -30.04208 | -57.63331 | 30452 ft | 423 kts | 354° |
| 2026-05-01 13:37 | -30.01247 | -57.63260 | 30716 ft | 425 kts | 354° |
| 2026-05-01 13:38 | -29.95342 | -57.63119 | 31216 ft | 428 kts | 354° |
| 2026-05-01 13:38 | -29.92356 | -57.63049 | 31484 ft | 429 kts | 354° |
| 2026-05-01 13:38 | -29.89370 | -57.62975 | 31843 ft | 427 kts | 354° |
| 2026-05-01 13:39 | -29.86400 | -57.62902 | 32181 ft | 426 kts | 353° |
| 2026-05-01 13:39 | -29.83434 | -57.62834 | 32465 ft | 427 kts | 353° |
| 2026-05-01 13:39 | -29.80456 | -57.62766 | 32775 ft | 427 kts | 353° |
| 2026-05-01 13:39 | -29.77488 | -57.62696 | 33117 ft | 426 kts | 353° |
| 2026-05-01 13:40 | -29.74522 | -57.62628 | 33470 ft | 425 kts | 353° |
| 2026-05-01 13:40 | -29.71567 | -57.62563 | 33825 ft | 424 kts | 353° |
| 2026-05-01 13:40 | -29.68619 | -57.62501 | 34148 ft | 422 kts | 352° |
| 2026-05-01 13:40 | -29.65722 | -57.62438 | 34442 ft | 422 kts | 352° |
| 2026-05-01 13:41 | -29.62781 | -57.62372 | 34714 ft | 421 kts | 352° |
| 2026-05-01 13:41 | -29.59840 | -57.62307 | 34978 ft | 421 kts | 352° |
| 2026-05-01 13:41 | -29.56925 | -57.62240 | 35235 ft | 421 kts | 352° |
| 2026-05-01 13:41 | -29.54002 | -57.62168 | 35490 ft | 420 kts | 352° |
| 2026-05-01 13:42 | -29.51074 | -57.62098 | 35736 ft | 420 kts | 352° |
| 2026-05-01 13:42 | -29.48152 | -57.62031 | 35974 ft | 419 kts | 352° |
| 2026-05-01 13:42 | -29.45237 | -57.61967 | 36206 ft | 419 kts | 352° |
| 2026-05-01 13:42 | -29.42322 | -57.61903 | 36436 ft | 418 kts | 352° |
| 2026-05-01 13:43 | -29.39438 | -57.61839 | 36648 ft | 418 kts | 352° |
| 2026-05-01 13:43 | -29.36527 | -57.61773 | 36784 ft | 419 kts | 351° |
| 2026-05-01 13:43 | -29.33599 | -57.61710 | 36914 ft | 421 kts | 351° |
| 2026-05-01 13:43 | -29.30662 | -57.61643 | 37060 ft | 422 kts | 352° |
| 2026-05-01 13:44 | -29.27717 | -57.61573 | 37243 ft | 423 kts | 352° |
| 2026-05-01 13:44 | -29.24780 | -57.61504 | 37433 ft | 422 kts | 351° |
| 2026-05-01 13:44 | -29.21839 | -57.61436 | 37638 ft | 422 kts | 351° |
| 2026-05-01 13:44 | -29.18907 | -57.61368 | 37848 ft | 422 kts | 351° |
| 2026-05-01 13:45 | -29.15972 | -57.61299 | 38041 ft | 421 kts | 351° |
| 2026-05-01 13:45 | -29.13043 | -57.61230 | 38215 ft | 421 kts | 351° |
| 2026-05-01 13:45 | -29.10155 | -57.61157 | 38425 ft | 420 kts | 350° |
| 2026-05-01 13:45 | -29.07230 | -57.61080 | 38628 ft | 419 kts | 350° |
| 2026-05-01 13:46 | -29.04315 | -57.61008 | 38775 ft | 418 kts | 350° |
| 2026-05-01 13:46 | -29.01407 | -57.60941 | 38927 ft | 418 kts | 350° |
| 2026-05-01 13:46 | -28.98494 | -57.60877 | 38984 ft | 418 kts | 350° |
| 2026-05-01 13:47 | -28.92671 | -57.60742 | 38992 ft | 418 kts | 350° |
| 2026-05-01 13:47 | -28.86841 | -57.60599 | 38982 ft | 417 kts | 349° |
| 2026-05-01 13:48 | -28.81068 | -57.60465 | 38991 ft | 416 kts | 349° |
| 2026-05-01 13:48 | -28.75264 | -57.60334 | 38989 ft | 416 kts | 349° |
| 2026-05-01 13:49 | -28.70441 | -57.60221 | 38994 ft | 417 kts | 349° |
| 2026-05-01 13:49 | -28.64639 | -57.60086 | 38999 ft | 417 kts | 349° |
| 2026-05-01 13:50 | -28.58821 | -57.59950 | 38975 ft | 418 kts | 349° |
| 2026-05-01 13:50 | -28.53038 | -57.59805 | 38976 ft | 418 kts | 349° |
| 2026-05-01 13:51 | -28.47215 | -57.59660 | 38981 ft | 418 kts | 349° |
| 2026-05-01 13:51 | -28.41385 | -57.59522 | 38988 ft | 418 kts | 349° |
| 2026-05-01 13:52 | -28.35552 | -57.59390 | 38983 ft | 419 kts | 348° |
| 2026-05-01 13:52 | -28.29711 | -57.59259 | 38993 ft | 419 kts | 348° |
| 2026-05-01 13:53 | -28.23882 | -57.59128 | 38994 ft | 419 kts | 348° |
| 2026-05-01 13:53 | -28.15154 | -57.58863 | 38996 ft | 421 kts | 349° |
| 2026-05-01 13:54 | -28.09304 | -57.58589 | 38976 ft | 421 kts | 350° |
| 2026-05-01 13:54 | -28.03447 | -57.58329 | 38983 ft | 421 kts | 349° |
| 2026-05-01 13:55 | -27.97587 | -57.58090 | 38990 ft | 421 kts | 349° |
| 2026-05-01 13:55 | -27.91760 | -57.57850 | 38996 ft | 421 kts | 349° |
| 2026-05-01 13:56 | -27.85894 | -57.57613 | 38980 ft | 421 kts | 349° |
| 2026-05-01 13:56 | -27.80033 | -57.57369 | 38991 ft | 421 kts | 349° |
| 2026-05-01 13:57 | -27.74160 | -57.57116 | 38998 ft | 421 kts | 349° |
| 2026-05-01 13:57 | -27.68337 | -57.56879 | 39001 ft | 421 kts | 349° |
| 2026-05-01 13:58 | -27.62475 | -57.56642 | 39002 ft | 421 kts | 349° |
| 2026-05-01 13:58 | -27.56611 | -57.56400 | 38992 ft | 421 kts | 350° |
| 2026-05-01 13:59 | -27.50755 | -57.56162 | 38997 ft | 420 kts | 350° |
| 2026-05-01 13:59 | -27.44908 | -57.55920 | 39002 ft | 420 kts | 350° |
| 2026-05-01 14:00 | -27.39100 | -57.55702 | 39001 ft | 419 kts | 349° |
| 2026-05-01 14:00 | -27.33254 | -57.55541 | 38992 ft | 419 kts | 349° |
| 2026-05-01 14:01 | -27.27422 | -57.55387 | 39000 ft | 419 kts | 349° |
| 2026-05-01 14:01 | -27.21596 | -57.55227 | 39003 ft | 419 kts | 349° |
| 2026-05-01 14:02 | -27.15787 | -57.55053 | 39012 ft | 419 kts | 349° |
| 2026-05-01 14:02 | -27.09947 | -57.54880 | 39009 ft | 419 kts | 349° |
| 2026-05-01 14:03 | -27.04102 | -57.54711 | 39013 ft | 419 kts | 349° |
| 2026-05-01 14:03 | -26.98305 | -57.54546 | 39010 ft | 419 kts | 349° |
| 2026-05-01 14:04 | -26.92472 | -57.54375 | 39009 ft | 419 kts | 349° |
| 2026-05-01 14:04 | -26.86641 | -57.54204 | 39007 ft | 419 kts | 349° |
| 2026-05-01 14:05 | -26.80826 | -57.54081 | 38989 ft | 417 kts | 349° |
| 2026-05-01 14:05 | -26.75024 | -57.54041 | 38998 ft | 416 kts | 349° |
| 2026-05-01 14:06 | -26.69261 | -57.54000 | 39006 ft | 417 kts | 349° |
| 2026-05-01 14:06 | -26.63453 | -57.53937 | 39009 ft | 417 kts | 349° |
| 2026-05-01 14:07 | -26.57651 | -57.53873 | 38990 ft | 416 kts | 349° |
| 2026-05-01 14:08 | -26.48986 | -57.53781 | 38995 ft | 416 kts | 349° |
| 2026-05-01 14:08 | -26.43189 | -57.53717 | 39003 ft | 416 kts | 349° |
| 2026-05-01 14:09 | -26.37392 | -57.53651 | 39005 ft | 416 kts | 349° |
| 2026-05-01 14:09 | -26.31594 | -57.53588 | 38984 ft | 416 kts | 350° |
| 2026-05-01 14:10 | -26.25825 | -57.53534 | 38983 ft | 416 kts | 350° |
| 2026-05-01 14:10 | -26.20025 | -57.53472 | 38989 ft | 417 kts | 350° |
| 2026-05-01 14:11 | -26.14215 | -57.53408 | 38991 ft | 417 kts | 350° |
| 2026-05-01 14:11 | -26.05499 | -57.53311 | 38982 ft | 417 kts | 350° |
| 2026-05-01 14:12 | -25.99694 | -57.53234 | 38986 ft | 417 kts | 350° |
| 2026-05-01 14:12 | -25.93916 | -57.53149 | 38990 ft | 418 kts | 350° |
| 2026-05-01 14:13 | -25.89069 | -57.53083 | 38991 ft | 418 kts | 350° |
| 2026-05-01 14:13 | -25.82268 | -57.52994 | 38997 ft | 418 kts | 350° |
| 2026-05-01 14:14 | -25.76475 | -57.52908 | 38980 ft | 418 kts | 351° |
| 2026-05-01 14:14 | -25.70649 | -57.52829 | 38993 ft | 418 kts | 351° |
| 2026-05-01 14:15 | -25.64855 | -57.52752 | 38997 ft | 418 kts | 351° |
| 2026-05-01 14:15 | -25.59028 | -57.52666 | 39007 ft | 418 kts | 351° |
| 2026-05-01 14:16 | -25.53196 | -57.52582 | 38999 ft | 418 kts | 351° |
| 2026-05-01 14:16 | -25.47370 | -57.52512 | 39011 ft | 418 kts | 351° |
| 2026-05-01 14:17 | -25.41545 | -57.52433 | 39016 ft | 418 kts | 351° |
| 2026-05-01 14:17 | -25.35720 | -57.52360 | 39019 ft | 419 kts | 351° |
| 2026-05-01 14:18 | -25.29894 | -57.52286 | 38994 ft | 419 kts | 351° |
| 2026-05-01 14:18 | -25.25046 | -57.52220 | 38978 ft | 417 kts | 349° |
| 2026-05-01 14:19 | -25.18441 | -57.52964 | 38985 ft | 410 kts | 344° |
| 2026-05-01 14:19 | -25.12772 | -57.53689 | 38993 ft | 410 kts | 344° |
| 2026-05-01 14:20 | -25.04258 | -57.54766 | 39004 ft | 410 kts | 344° |
| 2026-05-01 14:21 | -24.98582 | -57.55481 | 38987 ft | 410 kts | 345° |
| 2026-05-01 14:21 | -24.92908 | -57.56197 | 38999 ft | 411 kts | 345° |
| 2026-05-01 14:22 | -24.84390 | -57.57280 | 39011 ft | 411 kts | 345° |
| 2026-05-01 14:22 | -24.78740 | -57.58001 | 39019 ft | 411 kts | 345° |
| 2026-05-01 14:23 | -24.73060 | -57.58723 | 39001 ft | 411 kts | 346° |
| 2026-05-01 14:23 | -24.67363 | -57.59437 | 39004 ft | 412 kts | 346° |
| 2026-05-01 14:24 | -24.61659 | -57.60148 | 39003 ft | 412 kts | 346° |
| 2026-05-01 14:24 | -24.55957 | -57.60872 | 39006 ft | 412 kts | 345° |
| 2026-05-01 14:25 | -24.50254 | -57.61599 | 39010 ft | 413 kts | 345° |
| 2026-05-01 14:25 | -24.44579 | -57.62311 | 39015 ft | 413 kts | 346° |
| 2026-05-01 14:26 | -24.36015 | -57.63399 | 39014 ft | 412 kts | 345° |
| 2026-05-01 14:27 | -24.30315 | -57.64156 | 39014 ft | 412 kts | 345° |
| 2026-05-01 14:27 | -24.24620 | -57.64916 | 38995 ft | 412 kts | 346° |
| 2026-05-01 14:28 | -24.16104 | -57.66046 | 39002 ft | 413 kts | 345° |
| 2026-05-01 14:28 | -24.10395 | -57.66798 | 39003 ft | 413 kts | 345° |
| 2026-05-01 14:29 | -24.04681 | -57.67549 | 39005 ft | 413 kts | 345° |
| 2026-05-01 14:30 | -23.93301 | -57.69038 | 38997 ft | 413 kts | 346° |
| 2026-05-01 14:31 | -23.84722 | -57.70161 | 38998 ft | 414 kts | 346° |
| 2026-05-01 14:31 | -23.78996 | -57.70909 | 38999 ft | 414 kts | 346° |
| 2026-05-01 14:32 | -23.73262 | -57.71663 | 39004 ft | 415 kts | 346° |
| 2026-05-01 14:32 | -23.67528 | -57.72416 | 38996 ft | 415 kts | 346° |
| 2026-05-01 14:33 | -23.61789 | -57.73164 | 38996 ft | 415 kts | 346° |
| 2026-05-01 14:33 | -23.56048 | -57.73907 | 38999 ft | 415 kts | 346° |
| 2026-05-01 14:34 | -23.50342 | -57.74651 | 39002 ft | 415 kts | 346° |
| 2026-05-01 14:34 | -23.44608 | -57.75402 | 38989 ft | 415 kts | 346° |
| 2026-05-01 14:35 | -23.38869 | -57.76149 | 38999 ft | 415 kts | 346° |
| 2026-05-01 14:35 | -23.33125 | -57.76901 | 39005 ft | 415 kts | 346° |
| 2026-05-01 14:36 | -23.27382 | -57.77652 | 39009 ft | 416 kts | 346° |
| 2026-05-01 14:36 | -23.21626 | -57.78391 | 39012 ft | 416 kts | 346° |
| 2026-05-01 14:37 | -23.16844 | -57.79009 | 38992 ft | 416 kts | 346° |
| 2026-05-01 14:37 | -23.11087 | -57.79754 | 38996 ft | 416 kts | 346° |
| 2026-05-01 14:38 | -23.05355 | -57.80501 | 39001 ft | 417 kts | 346° |
| 2026-05-01 14:38 | -22.99595 | -57.81251 | 39006 ft | 417 kts | 346° |
| 2026-05-01 14:39 | -22.93834 | -57.81995 | 39004 ft | 417 kts | 346° |
| 2026-05-01 14:39 | -22.88070 | -57.82733 | 38995 ft | 417 kts | 346° |
| 2026-05-01 14:40 | -22.82302 | -57.83476 | 39000 ft | 417 kts | 346° |
| 2026-05-01 14:40 | -22.76533 | -57.84223 | 39010 ft | 417 kts | 346° |
| 2026-05-01 14:41 | -22.70767 | -57.84976 | 39007 ft | 417 kts | 346° |
| 2026-05-01 14:41 | -22.64995 | -57.85716 | 38995 ft | 418 kts | 347° |
| 2026-05-01 14:42 | -22.59219 | -57.86453 | 39003 ft | 418 kts | 347° |
| 2026-05-01 14:42 | -22.53470 | -57.87191 | 39000 ft | 418 kts | 347° |
| 2026-05-01 14:43 | -22.47678 | -57.87940 | 39004 ft | 419 kts | 347° |
| 2026-05-01 14:43 | -22.41891 | -57.88682 | 39007 ft | 419 kts | 347° |
| 2026-05-01 14:44 | -22.36132 | -57.89419 | 38994 ft | 419 kts | 347° |
| 2026-05-01 14:44 | -22.27435 | -57.90529 | 38994 ft | 420 kts | 347° |
| 2026-05-01 14:45 | -22.18718 | -57.91635 | 38996 ft | 420 kts | 347° |
| 2026-05-01 14:46 | -22.12904 | -57.92383 | 38992 ft | 420 kts | 348° |
| 2026-05-01 14:46 | -22.04227 | -57.93496 | 38998 ft | 420 kts | 348° |
| 2026-05-01 14:47 | -21.98421 | -57.94241 | 39003 ft | 420 kts | 347° |
| 2026-05-01 14:48 | -21.89712 | -57.95355 | 39005 ft | 420 kts | 347° |
| 2026-05-01 14:48 | -21.81014 | -57.96464 | 39004 ft | 420 kts | 348° |
| 2026-05-01 14:49 | -21.69407 | -57.97928 | 39009 ft | 420 kts | 348° |
| 2026-05-01 14:50 | -21.57806 | -57.99407 | 38995 ft | 420 kts | 348° |
| 2026-05-01 14:51 | -21.49139 | -58.00503 | 38998 ft | 420 kts | 348° |
| 2026-05-01 14:52 | -21.40426 | -58.01606 | 39003 ft | 420 kts | 348° |
| 2026-05-01 14:53 | -21.31711 | -58.02702 | 39002 ft | 420 kts | 348° |
| 2026-05-01 14:53 | -21.25892 | -58.03437 | 38992 ft | 421 kts | 348° |
| 2026-05-01 14:54 | -21.20071 | -58.04175 | 38995 ft | 421 kts | 348° |
| 2026-05-01 14:54 | -21.14242 | -58.04911 | 38997 ft | 421 kts | 348° |
| 2026-05-01 14:55 | -21.08419 | -58.05653 | 39002 ft | 422 kts | 348° |
| 2026-05-01 14:55 | -21.02587 | -58.06384 | 38990 ft | 422 kts | 348° |
| 2026-05-01 14:56 | -20.96752 | -58.07114 | 38992 ft | 422 kts | 348° |
| 2026-05-01 14:56 | -20.90907 | -58.07845 | 38818 ft | 423 kts | 348° |
| 2026-05-01 14:56 | -20.88025 | -58.08204 | 38567 ft | 422 kts | 348° |
| 2026-05-01 14:57 | -20.85119 | -58.08567 | 38044 ft | 419 kts | 348° |
| 2026-05-01 14:57 | -20.79342 | -58.09294 | 36869 ft | 417 kts | 348° |
| 2026-05-01 14:57 | -20.76446 | -58.09660 | 36128 ft | 420 kts | 349° |
| 2026-05-01 14:58 | -20.73537 | -58.10029 | 35409 ft | 423 kts | 349° |
| 2026-05-01 14:58 | -20.70607 | -58.10400 | 34727 ft | 425 kts | 349° |
| 2026-05-01 14:58 | -20.67690 | -58.10765 | 34274 ft | 421 kts | 349° |
| 2026-05-01 14:58 | -20.64784 | -58.11127 | 33720 ft | 419 kts | 349° |
| 2026-05-01 14:59 | -20.61897 | -58.11480 | 33169 ft | 416 kts | 350° |
| 2026-05-01 14:59 | -20.59017 | -58.11788 | 32630 ft | 414 kts | 351° |
| 2026-05-01 14:59 | -20.56184 | -58.12055 | 32095 ft | 412 kts | 352° |
| 2026-05-01 14:59 | -20.53327 | -58.12306 | 31563 ft | 410 kts | 352° |
| 2026-05-01 15:00 | -20.47663 | -58.12806 | 30515 ft | 406 kts | 352° |
| 2026-05-01 15:00 | -20.44854 | -58.13069 | 29998 ft | 405 kts | 352° |
| 2026-05-01 15:00 | -20.42058 | -58.13339 | 29442 ft | 402 kts | 352° |
| 2026-05-01 15:01 | -20.39284 | -58.13608 | 28945 ft | 398 kts | 352° |
| 2026-05-01 15:01 | -20.36542 | -58.13875 | 28463 ft | 394 kts | 352° |
| 2026-05-01 15:01 | -20.33819 | -58.14136 | 27987 ft | 391 kts | 352° |
| 2026-05-01 15:01 | -20.31119 | -58.14391 | 27531 ft | 388 kts | 352° |
| 2026-05-01 15:02 | -20.28440 | -58.14646 | 27072 ft | 385 kts | 352° |
| 2026-05-01 15:02 | -20.26675 | -58.14813 | 26780 ft | 384 kts | 352° |
| 2026-05-01 15:02 | -20.23123 | -58.15148 | 26190 ft | 381 kts | 352° |
| 2026-05-01 15:02 | -20.20520 | -58.15396 | 25743 ft | 380 kts | 353° |
| 2026-05-01 15:03 | -20.17885 | -58.15647 | 25289 ft | 379 kts | 353° |
| 2026-05-01 15:03 | -20.15269 | -58.15897 | 24835 ft | 377 kts | 353° |
| 2026-05-01 15:03 | -20.12651 | -58.16150 | 24361 ft | 377 kts | 353° |
| 2026-05-01 15:03 | -20.10041 | -58.16403 | 23882 ft | 376 kts | 353° |
| 2026-05-01 15:04 | -20.07429 | -58.16652 | 23368 ft | 377 kts | 353° |
| 2026-05-01 15:04 | -20.04822 | -58.16898 | 22848 ft | 375 kts | 353° |
| 2026-05-01 15:04 | -20.02229 | -58.17140 | 22363 ft | 373 kts | 353° |
| 2026-05-01 15:04 | -19.99649 | -58.17384 | 21875 ft | 372 kts | 353° |
| 2026-05-01 15:05 | -19.97079 | -58.17628 | 21388 ft | 370 kts | 353° |
| 2026-05-01 15:05 | -19.94516 | -58.17870 | 20926 ft | 368 kts | 353° |
| 2026-05-01 15:05 | -19.91971 | -58.18110 | 20441 ft | 367 kts | 353° |
| 2026-05-01 15:05 | -19.89434 | -58.18348 | 19976 ft | 365 kts | 353° |
| 2026-05-01 15:06 | -19.86910 | -58.18589 | 19508 ft | 364 kts | 354° |
| 2026-05-01 15:06 | -19.84426 | -58.18826 | 19049 ft | 362 kts | 354° |
| 2026-05-01 15:06 | -19.81917 | -58.19066 | 18592 ft | 361 kts | 354° |
| 2026-05-01 15:06 | -19.79417 | -58.19305 | 18115 ft | 360 kts | 353° |
| 2026-05-01 15:07 | -19.76932 | -58.19544 | 17673 ft | 357 kts | 353° |
| 2026-05-01 15:07 | -19.74471 | -58.19781 | 17197 ft | 355 kts | 353° |
| 2026-05-01 15:07 | -19.72020 | -58.20016 | 16754 ft | 352 kts | 354° |
| 2026-05-01 15:07 | -19.69586 | -58.20248 | 16321 ft | 350 kts | 354° |
| 2026-05-01 15:08 | -19.67168 | -58.20477 | 15895 ft | 348 kts | 353° |
| 2026-05-01 15:08 | -19.64757 | -58.20479 | 15462 ft | 347 kts | 7° |
| 2026-05-01 15:08 | -19.62435 | -58.19786 | 15041 ft | 348 kts | 23° |
| 2026-05-01 15:08 | -19.60325 | -58.18536 | 14620 ft | 347 kts | 30° |
| 2026-05-01 15:09 | -19.58251 | -58.17231 | 14185 ft | 346 kts | 29° |
| 2026-05-01 15:09 | -19.56184 | -58.15940 | 13777 ft | 344 kts | 29° |
| 2026-05-01 15:09 | -19.54125 | -58.14660 | 13351 ft | 341 kts | 29° |
| 2026-05-01 15:09 | -19.52088 | -58.13397 | 12961 ft | 337 kts | 28° |
| 2026-05-01 15:10 | -19.50093 | -58.12163 | 12486 ft | 336 kts | 28° |
| 2026-05-01 15:10 | -19.46162 | -58.09723 | 12095 ft | 316 kts | 28° |
| 2026-05-01 15:10 | -19.44303 | -58.08565 | 11894 ft | 305 kts | 29° |
| 2026-05-01 15:11 | -19.42491 | -58.07436 | 11382 ft | 299 kts | 28° |
| 2026-05-01 15:11 | -19.38884 | -58.05201 | 10226 ft | 293 kts | 28° |
| 2026-05-01 15:11 | -19.37181 | -58.04144 | 10099 ft | 274 kts | 28° |
| 2026-05-01 15:12 | -19.35596 | -58.03158 | 9951 ft | 258 kts | 28° |
| 2026-05-01 15:12 | -19.32448 | -58.01205 | 8612 ft | 265 kts | 28° |
| 2026-05-01 15:12 | -19.30877 | -58.00231 | 8171 ft | 257 kts | 28° |
| 2026-05-01 15:13 | -19.26505 | -57.97506 | 7093 ft | 231 kts | 28° |
| 2026-05-01 15:14 | -19.23815 | -57.95838 | 6423 ft | 217 kts | 28° |
| 2026-05-01 15:14 | -19.22534 | -57.95047 | 6088 ft | 211 kts | 28° |
| 2026-05-01 15:14 | -19.20019 | -57.93495 | 5430 ft | 208 kts | 29° |
| 2026-05-01 15:15 | -19.17515 | -57.91940 | 4775 ft | 210 kts | 30° |
| 2026-05-01 15:15 | -19.15018 | -57.90390 | 4109 ft | 207 kts | 30° |
| 2026-05-01 15:16 | -19.12501 | -57.88832 | 3429 ft | 211 kts | 30° |
| 2026-05-01 15:16 | -19.09973 | -57.87271 | 2976 ft | 203 kts | 30° |
| 2026-05-01 15:17 | -19.07556 | -57.85770 | 2814 ft | 199 kts | 31° |
| 2026-05-01 15:18 | -19.05199 | -57.82331 | 2555 ft | 191 kts | 72° |
| 2026-05-01 15:18 | -19.04854 | -57.80999 | 2509 ft | 181 kts | 70° |
| 2026-05-01 15:19 | -19.03992 | -57.77736 | 2275 ft | 137 kts | 68° |
| 2026-05-01 15:19 | -19.03479 | -57.75829 | 2136 ft | 138 kts | 69° |
| 2026-05-01 15:19 | -19.03218 | -57.74858 | 1928 ft | 137 kts | 71° |
| 2026-05-01 15:20 | -19.02710 | -57.72945 | 1549 ft | 133 kts | 71° |
| 2026-05-01 15:20 | -19.02455 | -57.72000 | 1289 ft | 134 kts | 72° |
| 2026-05-01 15:20 | -19.02194 | -57.71049 | 1191 ft | 133 kts | 71° |
| 2026-05-01 15:21 | -19.01936 | -57.70087 | 1005 ft | 136 kts | 75° |
| 2026-05-01 15:21 | -19.01687 | -57.69115 | 798 ft | 136 kts | 72° |
| 2026-05-01 15:21 | -19.01427 | -57.68155 | 549 ft | 134 kts | 73° |
| 2026-05-01 15:21 | -19.01185 | -57.67246 | 450 ft | 112 kts | 74° |
| 2026-05-01 15:22 | -19.00970 | -57.66426 | 469 ft | 13 kts | 90° |
| 2026-05-01 15:22 | -19.01028 | -57.66360 | 469 ft | 11 kts | 156° |
| 2026-05-01 15:22 | -19.01082 | -57.66338 | 467 ft | 6 kts | 153° |
| 2026-05-01 15:23 | -19.01122 | -57.66316 | 469 ft | 7 kts | 156° |
| 2026-05-01 15:23 | -19.01167 | -57.66297 | 469 ft | 7 kts | 156° |
| 2026-05-01 15:23 | -19.01215 | -57.66274 | 469 ft | 8 kts | 156° |
| 2026-05-01 15:23 | -19.01267 | -57.66255 | 469 ft | 8 kts | 178° |
| 2026-05-01 15:24 | -19.01303 | -57.66294 | 469 ft | 8 kts | 257° |
| 2026-05-01 15:24 | -19.01312 | -57.66362 | 466 ft | 10 kts | 262° |
| 2026-05-01 15:24 | -19.01319 | -57.66420 | 466 ft | 3 kts | 259° |
| 2026-05-01 15:24 | -19.01342 | -57.66432 | 466 ft | 5 kts | 189° |
| 2026-05-01 15:25 | -19.01376 | -57.66430 | 464 ft | 3 kts | 173° |
| 2026-05-01 15:25 | -19.01377 | -57.66430 | 464 ft | 0 kts | 173° |